Time;durP1;ratioP1;P1;durP2;ratioP2;P2;SDS_P1;SDS_P2;PMS_P1;PMS_P2;Temp;Humidity;BMP_temperature;BMP_pressure;BME280_temperature;BME280_humidity;BME280_pressure;Samples;Min_cycle;Max_cycle;Signal;HPM_P1;HPM_P2
2022/05/31 00:01:07;;;;;;;8.40;4.82;;;10.00;99.90;;;;;;5069785;28;20127;-70
2022/05/31 00:03:33;;;;;;;8.32;4.70;;;10.00;99.90;;;;;;5067533;28;20563;-70
2022/05/31 00:05:59;;;;;;;7.50;4.45;;;9.90;99.90;;;;;;5068202;28;20080;-70
2022/05/31 00:08:24;;;;;;;7.50;4.40;;;10.00;99.90;;;;;;5068278;28;20109;-70
2022/05/31 00:10:50;;;;;;;6.35;4.60;;;10.20;99.90;;;;;;5066667;28;20450;-70
2022/05/31 00:13:16;;;;;;;7.60;4.32;;;9.90;99.90;;;;;;5067206;28;20049;-70
2022/05/31 00:15:41;;;;;;;5.75;4.60;;;10.00;99.90;;;;;;5067392;28;20052;-70
2022/05/31 00:18:08;;;;;;;8.32;4.45;;;9.90;99.90;;;;;;5068117;28;20050;-69
2022/05/31 00:20:34;;;;;;;8.43;4.35;;;10.00;99.90;;;;;;5068288;28;20040;-69
2022/05/31 00:23:00;;;;;;;6.45;4.30;;;10.00;99.90;;;;;;5067714;28;20422;-71
2022/05/31 00:25:25;;;;;;;6.25;4.32;;;10.00;99.90;;;;;;5053721;28;20040;-71
2022/05/31 00:27:51;;;;;;;5.47;4.10;;;10.00;99.90;;;;;;5063311;28;20044;-71
2022/05/31 00:30:16;;;;;;;6.22;4.18;;;10.00;99.90;;;;;;5066893;28;20049;-71
2022/05/31 00:32:49;;;;;;;6.93;3.90;;;10.10;99.90;;;;;;5067447;28;20496;-70
2022/05/31 00:35:22;;;;;;;5.30;4.22;;;10.10;99.90;;;;;;5068432;28;20047;-71
2022/05/31 00:37:48;;;;;;;6.22;3.97;;;10.10;99.90;;;;;;5067537;28;20044;-71
2022/05/31 00:40:16;;;;;;;5.50;3.88;;;10.10;99.90;;;;;;5069418;28;20041;-70
2022/05/31 00:42:50;;;;;;;7.38;4.60;;;10.10;99.90;;;;;;5067192;28;20052;-71
2022/05/31 00:45:16;;;;;;;5.95;3.88;;;10.10;99.90;;;;;;5066233;28;20048;-71
2022/05/31 00:47:42;;;;;;;5.50;3.90;;;10.10;99.90;;;;;;5067715;28;20537;-71
2022/05/31 00:50:19;;;;;;;6.80;4.22;;;10.10;99.90;;;;;;5067821;28;20045;-72
2022/05/31 00:52:50;;;;;;;5.85;4.20;;;10.10;99.90;;;;;;5067125;28;20598;-72
2022/05/31 00:55:48;;;;;;;6.55;4.22;;;10.20;99.90;;;;;;5067023;28;20077;-70
2022/05/31 00:58:35;;;;;;;6.70;4.30;;;10.20;99.90;;;;;;5050258;28;20049;-70
2022/05/31 01:01:05;;;;;;;7.55;4.40;;;10.20;99.90;;;;;;5051368;28;20505;-70
2022/05/31 01:03:33;;;;;;;5.25;3.75;;;10.40;99.90;;;;;;5053709;28;20390;-70
2022/05/31 01:05:58;;;;;;;6.10;4.25;;;10.20;99.90;;;;;;5064336;28;20047;-70
2022/05/31 01:08:24;;;;;;;5.95;4.30;;;10.20;99.90;;;;;;5071006;28;20485;-70
2022/05/31 01:10:50;;;;;;;5.60;4.40;;;10.20;99.90;;;;;;5070030;28;20041;-70
2022/05/31 01:13:17;;;;;;;7.50;4.20;;;10.20;99.90;;;;;;5070421;28;20049;-70
2022/05/31 01:15:45;;;;;;;6.45;4.55;;;10.20;99.90;;;;;;5070421;28;20064;-71
2022/05/31 01:18:11;;;;;;;5.90;4.50;;;10.30;99.90;;;;;;5055766;28;20045;-70
2022/05/31 01:20:37;;;;;;;7.10;4.57;;;10.80;99.90;;;;;;5070868;28;20044;-70
2022/05/31 01:23:14;;;;;;;6.85;5.53;;;10.20;99.90;;;;;;5071613;28;20052;-71
2022/05/31 01:26:03;;;;;;;8.70;5.80;;;10.20;99.90;;;;;;5071086;28;20040;-70
2022/05/31 01:28:46;;;;;;;7.38;5.78;;;10.40;99.90;;;;;;5070256;28;20375;-70
2022/05/31 01:31:28;;;;;;;9.43;5.88;;;10.30;99.90;;;;;;5070322;28;20048;-70
2022/05/31 01:33:57;;;;;;;8.30;6.47;;;10.30;99.90;;;;;;5070318;28;20055;-71
2022/05/31 01:36:29;;;;;;;8.05;6.15;;;10.30;99.90;;;;;;5071748;28;20129;-70
2022/05/31 01:39:04;;;;;;;6.70;5.38;;;10.30;99.90;;;;;;5072082;28;20045;-70
2022/05/31 01:41:36;;;;;;;8.48;5.47;;;10.30;99.90;;;;;;5070398;28;20046;-70
2022/05/31 01:44:07;;;;;;;8.95;5.93;;;10.30;99.90;;;;;;5073507;28;20040;-70
2022/05/31 01:46:34;;;;;;;7.30;5.10;;;10.30;99.90;;;;;;5070159;28;20121;-70
2022/05/31 01:49:06;;;;;;;7.85;5.35;;;10.30;99.90;;;;;;5069496;28;20040;-71
2022/05/31 01:51:32;;;;;;;6.18;5.00;;;10.30;99.90;;;;;;5071071;28;20036;-70
2022/05/31 01:53:59;;;;;;;6.68;5.18;;;10.30;99.90;;;;;;5071581;28;20425;-70
2022/05/31 01:56:25;;;;;;;6.45;4.85;;;10.30;99.90;;;;;;5068383;28;20055;-70
2022/05/31 01:58:53;;;;;;;7.75;4.95;;;10.30;99.90;;;;;;5070331;28;20040;-70
2022/05/31 02:01:19;;;;;;;8.27;5.00;;;10.30;99.90;;;;;;5069358;28;20052;-70
2022/05/31 02:03:47;;;;;;;11.27;5.40;;;10.30;99.90;;;;;;5070969;28;20090;-70
2022/05/31 02:06:37;;;;;;;7.80;4.95;;;10.30;99.90;;;;;;5071581;28;20395;-70
2022/05/31 02:09:05;;;;;;;8.10;5.85;;;11.50;99.90;;;;;;5069446;28;20049;-70
2022/05/31 02:11:32;;;;;;;8.32;6.00;;;10.30;99.90;;;;;;5070987;28;20424;-70
2022/05/31 02:14:00;;;;;;;8.00;5.90;;;10.30;99.90;;;;;;5069835;28;20044;-70
2022/05/31 02:16:27;;;;;;;8.00;6.00;;;10.30;99.90;;;;;;5068354;28;20044;-70
2022/05/31 02:21:38;;;;;;;9.18;6.55;;;10.30;99.90;;;;;;5049961;28;20044;-70
2022/05/31 02:24:09;;;;;;;9.82;5.88;;;10.30;99.90;;;;;;5060707;28;20037;-70
2022/05/31 02:26:36;;;;;;;9.65;6.10;;;10.30;99.90;;;;;;5070239;28;20040;-69
2022/05/31 02:29:02;;;;;;;7.18;5.60;;;10.30;99.90;;;;;;5069981;28;20044;-70
2022/05/31 02:31:29;;;;;;;9.55;5.47;;;10.30;99.90;;;;;;5068598;28;20432;-70
2022/05/31 02:33:55;;;;;;;8.38;5.78;;;11.10;99.90;;;;;;5069287;28;20048;-69
2022/05/31 02:36:21;;;;;;;7.80;4.90;;;10.80;99.90;;;;;;5055179;28;20080;-70
2022/05/31 02:38:47;;;;;;;7.95;5.32;;;10.30;99.90;;;;;;5063297;28;20095;-70
2022/05/31 02:41:13;;;;;;;8.25;5.03;;;10.30;99.90;;;;;;5070443;28;20227;-70
2022/05/31 02:43:38;;;;;;;8.68;4.97;;;10.30;99.90;;;;;;5067113;28;20040;-70
2022/05/31 02:46:04;;;;;;;6.63;4.90;;;10.30;99.90;;;;;;5068144;28;20045;-69
2022/05/31 02:48:30;;;;;;;6.57;4.47;;;10.30;99.90;;;;;;5070598;28;20048;-70
2022/05/31 02:50:56;;;;;;;6.07;4.38;;;10.30;99.90;;;;;;5068257;28;20052;-70
2022/05/31 02:53:22;;;;;;;6.85;4.50;;;10.40;99.90;;;;;;5069735;28;20045;-70
2022/05/31 02:55:48;;;;;;;6.60;4.40;;;10.30;99.90;;;;;;5069837;28;20076;-70
2022/05/31 02:58:13;;;;;;;6.07;4.30;;;10.30;99.90;;;;;;5053915;28;20437;-70
2022/05/31 03:00:39;;;;;;;5.43;4.32;;;10.30;99.90;;;;;;5053491;28;20473;-70
2022/05/31 03:03:05;;;;;;;7.05;4.63;;;10.20;99.90;;;;;;5069438;28;20128;-70
2022/05/31 03:05:31;;;;;;;7.70;4.35;;;10.20;99.90;;;;;;5069261;28;20489;-70
2022/05/31 03:07:57;;;;;;;5.70;4.65;;;10.20;99.90;;;;;;5069112;28;20052;-70
2022/05/31 03:10:27;;;;;;;7.03;4.65;;;10.20;99.90;;;;;;5068658;28;20171;-70
2022/05/31 03:12:55;;;;;;;7.93;5.18;;;10.70;99.90;;;;;;5068403;28;20055;-70
2022/05/31 03:15:21;;;;;;;8.77;5.60;;;10.20;99.90;;;;;;5068709;28;20053;-70
2022/05/31 03:17:54;;;;;;;8.20;5.32;;;10.20;99.90;;;;;;5068981;28;20040;-71
2022/05/31 03:20:32;;;;;;;7.88;5.60;;;10.20;99.90;;;;;;5066833;28;20477;-70
2022/05/31 03:23:04;;;;;;;8.30;5.32;;;10.20;99.90;;;;;;5070153;28;20159;-71
2022/05/31 03:25:31;;;;;;;8.35;5.60;;;10.20;99.90;;;;;;5071171;28;20047;-70
2022/05/31 03:28:00;;;;;;;6.47;4.97;;;10.20;99.90;;;;;;5066845;28;20511;-70
2022/05/31 03:30:25;;;;;;;7.72;5.03;;;10.20;99.90;;;;;;5068238;28;20425;-70
2022/05/31 03:32:55;;;;;;;7.57;5.18;;;10.20;99.90;;;;;;5067759;28;20040;-71
2022/05/31 03:35:20;;;;;;;6.78;5.20;;;10.20;99.90;;;;;;5067607;28;20048;-70
2022/05/31 03:37:46;;;;;;;9.90;5.97;;;10.20;99.90;;;;;;5067861;28;20040;-70
2022/05/31 03:40:55;;;;;;;8.65;5.30;;;10.20;99.90;;;;;;5068681;28;20075;-70
2022/05/31 03:43:00;;;;;;;8.43;5.57;;;10.20;99.90;;;;;;5068122;28;20054;-70
2022/05/31 03:45:35;;;;;;;9.50;5.43;;;10.20;99.90;;;;;;5066359;28;20063;-70
2022/05/31 03:48:01;;;;;;;7.23;5.20;;;10.20;99.90;;;;;;5072033;28;20137;-70
2022/05/31 03:50:27;;;;;;;7.15;5.55;;;10.20;99.90;;;;;;5068867;28;20060;-70
2022/05/31 03:52:53;;;;;;;8.30;5.57;;;10.30;99.90;;;;;;5068401;28;20041;-70
2022/05/31 03:55:18;;;;;;;9.20;6.47;;;10.30;99.90;;;;;;5063889;28;20041;-71
2022/05/31 03:57:47;;;;;;;8.75;6.25;;;10.30;99.90;;;;;;5048163;28;20391;-70
2022/05/31 04:00:13;;;;;;;9.32;5.90;;;10.30;99.90;;;;;;5066856;28;20387;-70
2022/05/31 04:02:38;;;;;;;6.88;5.60;;;10.30;99.90;;;;;;5067547;28;20131;-70
2022/05/31 04:05:05;;;;;;;10.25;5.80;;;10.30;99.90;;;;;;5069071;28;20530;-71
2022/05/31 04:07:30;;;;;;;6.70;5.15;;;10.40;99.90;;;;;;5071523;28;20123;-70
2022/05/31 04:09:56;;;;;;;9.02;5.13;;;10.30;99.90;;;;;;5068857;28;20123;-70
2022/05/31 04:12:21;;;;;;;7.78;5.38;;;10.30;99.90;;;;;;5068236;28;20148;-70
2022/05/31 04:14:47;;;;;;;9.05;5.40;;;10.30;99.90;;;;;;5065978;28;20141;-70
2022/05/31 04:17:12;;;;;;;9.02;5.28;;;11.00;99.90;;;;;;5067148;28;20039;-70
2022/05/31 04:19:38;;;;;;;8.20;5.20;;;10.40;99.90;;;;;;5069011;28;20451;-70
2022/05/31 04:22:04;;;;;;;7.05;5.25;;;10.30;99.90;;;;;;5067978;28;20071;-70
2022/05/31 04:24:30;;;;;;;7.03;5.60;;;10.90;99.90;;;;;;5068075;28;20123;-70
2022/05/31 04:26:55;;;;;;;7.15;5.07;;;10.40;99.90;;;;;;5068252;28;20041;-70
2022/05/31 04:29:21;;;;;;;6.88;5.18;;;10.40;99.90;;;;;;5066484;28;20610;-70
2022/05/31 04:31:48;;;;;;;7.13;5.32;;;11.70;99.90;;;;;;5066596;28;20076;-70
2022/05/31 04:34:14;;;;;;;9.02;5.60;;;10.50;99.90;;;;;;5068076;28;20048;-70
2022/05/31 04:36:40;;;;;;;7.95;5.53;;;10.50;99.90;;;;;;5049962;28;20037;-70
2022/05/31 04:39:06;;;;;;;8.70;5.75;;;10.50;99.90;;;;;;5051517;28;20070;-71
2022/05/31 04:41:32;;;;;;;8.18;5.43;;;10.60;99.90;;;;;;5066806;28;20505;-70
2022/05/31 04:44:00;;;;;;;7.00;5.45;;;10.50;99.90;;;;;;5066156;28;20044;-70
2022/05/31 04:46:28;;;;;;;7.93;5.05;;;10.50;99.90;;;;;;5065869;28;20052;-70
2022/05/31 04:48:58;;;;;;;9.70;5.55;;;10.60;99.90;;;;;;5067110;28;20040;-70
2022/05/31 04:51:24;;;;;;;8.63;5.60;;;10.60;99.90;;;;;;5066551;28;20105;-70
2022/05/31 04:53:50;;;;;;;6.63;5.28;;;10.60;99.90;;;;;;5065745;28;20058;-70
2022/05/31 04:56:19;;;;;;;8.30;5.68;;;10.60;99.90;;;;;;5066854;28;20546;-70
2022/05/31 04:58:49;;;;;;;9.30;5.72;;;10.60;99.90;;;;;;5066064;28;20048;-70
2022/05/31 05:01:15;;;;;;;11.00;6.03;;;11.40;99.90;;;;;;5065249;28;20075;-70
2022/05/31 05:03:43;;;;;;;9.13;6.05;;;10.60;99.90;;;;;;5067175;28;20131;-70
2022/05/31 05:06:10;;;;;;;9.07;6.20;;;10.60;99.90;;;;;;5062886;28;20048;-70
2022/05/31 05:08:38;;;;;;;9.18;5.43;;;10.60;99.90;;;;;;5030573;28;20136;-70
2022/05/31 05:11:07;;;;;;;10.23;6.10;;;10.70;99.90;;;;;;5048664;28;20131;-70
2022/05/31 05:13:33;;;;;;;8.02;5.80;;;10.70;99.90;;;;;;5047163;28;20049;-70
2022/05/31 05:16:00;;;;;;;9.73;6.30;;;10.80;99.90;;;;;;5065638;28;20046;-70
2022/05/31 05:18:27;;;;;;;8.65;5.95;;;10.80;99.90;;;;;;5065904;28;20173;-70
2022/05/31 05:20:54;;;;;;;8.50;5.85;;;10.80;99.90;;;;;;5067618;28;20044;-70
2022/05/31 05:23:20;;;;;;;8.95;6.40;;;10.70;99.90;;;;;;5068054;28;20079;-70
2022/05/31 05:25:54;;;;;;;10.95;6.60;;;10.80;99.90;;;;;;5066564;28;20121;-71
2022/05/31 05:31:05;;;;;;;9.05;6.10;;;10.90;99.90;;;;;;5053692;28;20056;-70
2022/05/31 05:33:31;;;;;;;8.48;6.70;;;10.90;99.90;;;;;;5065167;28;20485;-70
2022/05/31 05:35:57;;;;;;;9.18;6.40;;;11.00;99.90;;;;;;5067448;28;20397;-70
2022/05/31 05:38:23;;;;;;;7.00;5.82;;;11.10;99.90;;;;;;5067536;28;20132;-70
2022/05/31 05:40:49;;;;;;;10.27;6.60;;;11.10;99.90;;;;;;5066399;28;20535;-71
2022/05/31 05:43:16;;;;;;;7.97;6.03;;;11.20;99.90;;;;;;5067270;28;20048;-70
2022/05/31 05:45:41;;;;;;;9.25;6.15;;;11.20;99.90;;;;;;5069391;28;20041;-70
2022/05/31 05:48:07;;;;;;;11.68;6.35;;;11.20;99.90;;;;;;5069909;28;20047;-70
2022/05/31 05:50:34;;;;;;;9.57;6.80;;;11.20;99.90;;;;;;5070162;28;20041;-71
2022/05/31 05:53:05;;;;;;;7.75;6.22;;;11.30;99.90;;;;;;5069840;28;20048;-71
2022/05/31 05:55:31;;;;;;;10.25;5.78;;;11.30;99.90;;;;;;5064761;28;20382;-70
2022/05/31 05:57:57;;;;;;;9.00;5.97;;;12.20;99.90;;;;;;5050262;28;20472;-70
2022/05/31 06:00:23;;;;;;;8.20;6.10;;;11.40;99.90;;;;;;5050242;28;20156;-70
2022/05/31 06:02:57;;;;;;;7.97;6.22;;;11.40;99.90;;;;;;5071025;28;20404;-71
2022/05/31 06:05:27;;;;;;;11.35;7.55;;;11.50;99.90;;;;;;5071013;28;20408;-70
2022/05/31 06:08:05;;;;;;;11.85;6.68;;;11.60;99.90;;;;;;5085714;28;20109;-70
2022/05/31 06:10:37;;;;;;;9.05;6.32;;;11.60;99.90;;;;;;5070441;28;20040;-70
2022/05/31 06:13:08;;;;;;;10.10;6.50;;;11.70;99.90;;;;;;5068448;28;20047;-70
2022/05/31 06:15:40;;;;;;;9.48;6.53;;;11.70;99.90;;;;;;5068493;28;20094;-71
2022/05/31 06:18:17;;;;;;;14.07;6.93;;;11.80;99.90;;;;;;5070136;28;20040;-71
2022/05/31 06:20:53;;;;;;;10.93;6.32;;;11.90;99.90;;;;;;5068935;28;20049;-71
2022/05/31 06:23:19;;;;;;;11.68;6.70;;;12.00;99.90;;;;;;5069585;28;20090;-71
2022/05/31 06:25:45;;;;;;;8.52;6.55;;;12.00;99.90;;;;;;5068487;28;20055;-71
2022/05/31 06:28:10;;;;;;;8.98;6.47;;;12.10;99.90;;;;;;5069531;28;20524;-71
2022/05/31 06:30:37;;;;;;;9.55;6.78;;;12.20;99.90;;;;;;5066865;28;20033;-71
2022/05/31 06:33:04;;;;;;;12.23;6.43;;;13.40;99.90;;;;;;5069758;28;20040;-72
2022/05/31 06:35:30;;;;;;;10.15;6.55;;;12.40;99.90;;;;;;5069577;28;20128;-71
2022/05/31 06:37:56;;;;;;;9.80;6.68;;;12.50;99.90;;;;;;5069617;28;20055;-72
2022/05/31 06:40:22;;;;;;;12.90;6.35;;;12.60;99.90;;;;;;5069484;28;20036;-71
2022/05/31 06:42:47;;;;;;;14.10;6.30;;;12.70;99.90;;;;;;5066277;28;20174;-72
2022/05/31 06:45:13;;;;;;;12.10;6.53;;;12.70;99.90;;;;;;5068009;28;20048;-71
2022/05/31 06:47:38;;;;;;;8.15;6.35;;;12.70;99.90;;;;;;5070049;28;20422;-72
2022/05/31 06:50:05;;;;;;;9.75;6.25;;;12.90;99.90;;;;;;5068687;28;20050;-72
2022/05/31 06:57:59;;;;;;;8.23;5.30;;;13.00;99.90;;;;;;5069085;28;20127;-71
2022/05/31 07:00:25;;;;;;;9.23;5.43;;;13.10;99.90;;;;;;5067575;28;20160;-71
2022/05/31 07:02:51;;;;;;;12.05;5.88;;;13.20;99.90;;;;;;5058733;28;20048;-70
2022/05/31 07:05:19;;;;;;;8.60;5.07;;;13.30;99.90;;;;;;5068811;28;20182;-70
2022/05/31 07:07:45;;;;;;;11.30;5.95;;;13.40;99.90;;;;;;5068565;28;20400;-70
2022/05/31 07:10:11;;;;;;;11.90;6.00;;;13.80;99.90;;;;;;5069165;28;20041;-71
2022/05/31 07:12:37;;;;;;;9.43;6.00;;;13.70;99.90;;;;;;5067734;28;20066;-70
2022/05/31 07:15:04;;;;;;;8.30;5.15;;;14.40;99.90;;;;;;5067871;28;20049;-71
2022/05/31 07:17:30;;;;;;;8.27;4.90;;;13.80;99.90;;;;;;5066731;28;20037;-70
2022/05/31 07:19:56;;;;;;;10.20;5.40;;;14.00;99.90;;;;;;5067420;28;20456;-70
2022/05/31 07:22:22;;;;;;;10.90;5.57;;;14.10;99.90;;;;;;5066413;28;20040;-71
2022/05/31 07:24:47;;;;;;;13.80;5.43;;;14.20;99.90;;;;;;5063652;28;20450;-70
2022/05/31 07:27:14;;;;;;;10.60;4.80;;;14.40;99.90;;;;;;5068246;28;20032;-71
2022/05/31 07:29:40;;;;;;;11.02;4.45;;;14.60;99.90;;;;;;5065501;28;20105;-71
2022/05/31 07:32:07;;;;;;;9.23;4.90;;;14.70;99.90;;;;;;5066846;28;20554;-71
2022/05/31 07:34:33;;;;;;;10.68;4.85;;;14.80;99.90;;;;;;5065009;28;20048;-72
2022/05/31 07:36:59;;;;;;;8.95;4.88;;;14.90;99.90;;;;;;5068549;28;20040;-71
2022/05/31 07:39:25;;;;;;;10.10;5.07;;;15.00;99.90;;;;;;5068464;28;20075;-70
2022/05/31 07:41:54;;;;;;;6.47;4.85;;;15.10;99.90;;;;;;5066833;28;20064;-70
2022/05/31 07:44:21;;;;;;;8.85;4.90;;;15.30;99.90;;;;;;5067178;28;20110;-67
2022/05/31 07:46:46;;;;;;;10.95;5.03;;;15.50;99.90;;;;;;5066448;28;20090;-68
2022/05/31 07:49:13;;;;;;;9.20;5.10;;;15.60;99.90;;;;;;5067858;28;20473;-68
2022/05/31 07:51:39;;;;;;;6.93;4.70;;;16.40;99.90;;;;;;5065836;28;20086;-68
2022/05/31 07:54:05;;;;;;;6.45;3.88;;;15.80;99.90;;;;;;5067996;28;20044;-68
2022/05/31 07:56:31;;;;;;;8.30;4.70;;;16.00;99.90;;;;;;5055478;28;20040;-68
2022/05/31 07:58:57;;;;;;;8.23;4.55;;;16.40;99.90;;;;;;5062501;28;20040;-68
2022/05/31 08:01:25;;;;;;;7.90;4.15;;;16.20;99.90;;;;;;5067439;28;20056;-68
2022/05/31 08:03:51;;;;;;;7.60;3.97;;;16.10;99.90;;;;;;5067892;28;20423;-68
2022/05/31 08:06:20;;;;;;;5.72;4.07;;;16.70;99.90;;;;;;5067698;28;20048;-69
2022/05/31 08:08:46;;;;;;;5.40;3.70;;;15.90;99.90;;;;;;5067640;28;20045;-69
2022/05/31 08:11:17;;;;;;;5.22;3.60;;;16.40;99.90;;;;;;5066561;28;20052;-68
2022/05/31 08:13:43;;;;;;;6.30;3.80;;;15.90;99.90;;;;;;5065560;28;20135;-68
2022/05/31 08:16:11;;;;;;;8.88;3.72;;;16.00;99.90;;;;;;5066477;28;20509;-67
2022/05/31 08:18:38;;;;;;;6.55;3.75;;;16.30;99.90;;;;;;5067689;28;20041;-68
2022/05/31 08:21:16;;;;;;;5.55;3.60;;;16.20;99.90;;;;;;5067968;28;20037;-68
2022/05/31 08:23:42;;;;;;;6.95;3.83;;;16.40;99.90;;;;;;5064903;28;20048;-67
2022/05/31 08:26:09;;;;;;;6.88;4.10;;;16.50;99.90;;;;;;5066369;28;20044;-67
2022/05/31 08:28:35;;;;;;;5.70;3.85;;;16.80;99.90;;;;;;5064212;28;20132;-68
2022/05/31 08:31:04;;;;;;;8.80;4.20;;;16.90;99.90;;;;;;5066204;28;20045;-67
2022/05/31 08:33:30;;;;;;;9.32;4.50;;;17.20;99.90;;;;;;5067826;28;20511;-67
2022/05/31 08:35:56;;;;;;;8.88;4.18;;;17.50;99.90;;;;;;5054839;28;20036;-68
2022/05/31 08:38:23;;;;;;;7.88;3.85;;;17.70;99.90;;;;;;5047954;28;20406;-68
2022/05/31 08:41:01;;;;;;;6.15;3.60;;;18.00;99.90;;;;;;5046919;28;20385;-68
2022/05/31 08:43:51;;;;;;;7.82;4.13;;;18.20;99.90;;;;;;5047155;28;20048;-67
2022/05/31 08:46:34;;;;;;;6.25;3.88;;;18.40;99.90;;;;;;5046049;28;20126;-67
2022/05/31 08:49:10;;;;;;;6.38;3.72;;;18.60;99.90;;;;;;5047559;28;20114;-67
2022/05/31 08:52:04;;;;;;;9.60;3.97;;;18.80;99.90;;;;;;5047520;28;20041;-68
2022/05/31 08:57:57;;;;;;;6.32;3.80;;;19.30;99.90;;;;;;5024444;28;20059;-68
2022/05/31 09:00:28;;;;;;;4.93;3.38;;;19.40;99.90;;;;;;5046140;28;20230;-68
2022/05/31 09:03:08;;;;;;;5.55;3.40;;;18.90;99.90;;;;;;5061174;28;20527;-67
2022/05/31 09:05:46;;;;;;;7.72;3.78;;;19.10;99.90;;;;;;5069724;28;20041;-68
2022/05/31 09:08:30;;;;;;;4.85;3.35;;;18.90;99.90;;;;;;5064149;28;20045;-69
2022/05/31 09:11:16;;;;;;;4.47;3.08;;;18.90;99.90;;;;;;5063680;28;20051;-68
2022/05/31 09:13:53;;;;;;;5.03;3.00;;;18.80;99.90;;;;;;5062035;28;20056;-68
2022/05/31 09:16:33;;;;;;;6.30;3.00;;;18.80;99.90;;;;;;5061034;28;20086;-68
2022/05/31 09:19:04;;;;;;;9.88;3.33;;;18.70;99.90;;;;;;5054764;28;20056;-68
2022/05/31 09:21:43;;;;;;;6.70;2.90;;;18.70;99.90;;;;;;5068710;28;20425;-68
2022/05/31 09:24:12;;;;;;;7.13;2.90;;;18.60;99.90;;;;;;5067637;28;20067;-68
2022/05/31 09:26:44;;;;;;;4.90;2.55;;;18.70;99.90;;;;;;5067531;28;20036;-68
2022/05/31 09:29:22;;;;;;;6.05;3.00;;;18.70;99.90;;;;;;5067534;28;20044;-68
2022/05/31 09:31:53;;;;;;;13.88;3.22;;;18.60;99.90;;;;;;5066658;28;20370;-68
2022/05/31 09:34:44;;;;;;;4.80;2.50;;;18.70;99.90;;;;;;5067023;28;20098;-68
2022/05/31 09:37:40;;;;;;;4.40;3.03;;;19.00;99.90;;;;;;5067732;28;20105;-68
2022/05/31 09:40:25;;;;;;;5.80;2.70;;;19.30;99.90;;;;;;5066681;28;20110;-70
2022/05/31 09:43:23;;;;;;;6.35;2.63;;;19.50;99.90;;;;;;5075661;28;20052;-69
2022/05/31 09:45:58;;;;;;;4.40;2.55;;;19.70;99.90;;;;;;5054623;28;20049;-70
2022/05/31 09:48:24;;;;;;;;;;;19.90;99.90;;;;;;5070651;28;20143;-70
2022/05/31 09:50:52;;;;;;;;;;;20.00;99.90;;;;;;5072375;28;20404;-69
2022/05/31 09:59:10;;;;;;;6.57;3.08;;;20.00;97.80;;;;;;5049880;28;20057;-69
2022/05/31 10:01:46;;;;;;;8.95;3.78;;;19.60;96.70;;;;;;5058205;28;20517;-70
2022/05/31 10:04:21;;;;;;;8.40;3.47;;;19.20;96.60;;;;;;5069775;28;20033;-69
2022/05/31 10:06:54;;;;;;;8.02;3.20;;;18.90;96.50;;;;;;5067941;28;20041;-72
2022/05/31 10:09:22;;;;;;;5.03;3.10;;;18.70;97.20;;;;;;5069647;28;20219;-72
2022/05/31 10:11:49;;;;;;;7.38;3.47;;;18.40;97.80;;;;;;5069291;28;20040;-71
2022/05/31 10:14:15;;;;;;;6.40;3.22;;;18.30;97.80;;;;;;5068996;28;20052;-73
2022/05/31 10:16:42;;;;;;;7.80;3.15;;;18.20;97.80;;;;;;5050948;28;20130;-71
2022/05/31 10:19:22;;;;;;;6.30;3.15;;;18.00;98.20;;;;;;5068776;28;20123;-71
2022/05/31 10:21:48;;;;;;;6.47;3.10;;;17.80;98.00;;;;;;5071033;28;20090;-72
2022/05/31 10:24:24;;;;;;;7.75;3.47;;;17.60;98.70;;;;;;5070647;28;20419;-73
2022/05/31 10:27:10;;;;;;;5.32;2.85;;;17.50;99.00;;;;;;5069454;28;20048;-73
2022/05/31 10:29:46;;;;;;;8.90;3.13;;;17.50;98.90;;;;;;5058982;28;20394;-73
2022/05/31 10:32:35;;;;;;;4.30;2.63;;;17.40;98.80;;;;;;5072195;28;20039;-74
2022/05/31 10:35:22;;;;;;;7.40;3.40;;;17.40;99.30;;;;;;5073019;28;20063;-75
2022/05/31 10:37:58;;;;;;;6.78;3.13;;;17.50;99.10;;;;;;5061896;28;20094;-69
2022/05/31 10:41:03;;;;;;;5.95;3.15;;;17.60;98.80;;;;;;5063079;28;20040;-68
2022/05/31 10:43:39;;;;;;;7.32;3.58;;;17.70;98.40;;;;;;5062363;28;20056;-67
2022/05/31 10:46:10;;;;;;;8.15;3.40;;;17.70;98.40;;;;;;5064994;28;20044;-67
2022/05/31 10:48:46;;;;;;;7.82;3.33;;;17.70;98.10;;;;;;5064093;28;20393;-67
2022/05/31 10:51:58;;;;;;;7.63;2.90;;;17.80;98.10;;;;;;5063788;28;20091;-69
2022/05/31 10:54:24;;;;;;;7.57;3.03;;;17.80;98.70;;;;;;5064407;28;20048;-68
2022/05/31 10:57:09;;;;;;;6.53;2.90;;;17.80;98.60;;;;;;5065327;28;20386;-68
2022/05/31 10:59:49;;;;;;;6.00;2.83;;;17.80;98.50;;;;;;5063049;28;20060;-68
2022/05/31 11:02:22;;;;;;;4.20;2.67;;;17.90;98.60;;;;;;5061833;28;20053;-69
2022/05/31 11:05:10;;;;;;;5.68;3.10;;;18.20;98.20;;;;;;5062341;28;20090;-68
2022/05/31 11:11:28;;;;;;;6.85;3.00;;;18.70;96.70;;;;;;5063176;28;20218;-68
2022/05/31 11:13:41;;;;;;;5.90;2.95;;;20.00;96.90;;;;;;5062419;28;20128;-68
2022/05/31 11:16:27;;;;;;;6.28;3.00;;;20.10;95.10;;;;;;5068456;28;20041;-67
2022/05/31 11:19:15;;;;;;;5.55;2.90;;;20.20;94.60;;;;;;5048878;28;20522;-67
2022/05/31 11:22:12;;;;;;;5.38;2.78;;;20.30;94.40;;;;;;5051582;28;20115;-68
2022/05/31 11:24:56;;;;;;;5.82;2.95;;;20.60;94.70;;;;;;5058338;28;20061;-68
2022/05/31 11:27:52;;;;;;;6.57;3.00;;;20.90;93.10;;;;;;5069199;28;20180;-66
2022/05/31 11:30:21;;;;;;;6.15;2.95;;;20.80;92.60;;;;;;5087237;28;20056;-66
2022/05/31 11:32:47;;;;;;;5.78;2.60;;;20.80;91.70;;;;;;5084941;28;20135;-67
2022/05/31 11:35:22;;;;;;;9.32;3.22;;;21.10;91.70;;;;;;5061962;28;20397;-66
2022/05/31 11:37:53;;;;;;;;;;;21.80;90.50;;;;;;5048029;28;20116;-66
2022/05/31 11:40:32;;;;;;;6.93;3.00;;;22.80;90.50;;;;;;5049642;28;20336;-66
2022/05/31 11:43:54;;;;;;;6.30;2.97;;;23.70;88.50;;;;;;5046666;28;20060;-66
2022/05/31 11:46:47;;;;;;;5.28;2.67;;;24.20;84.50;;;;;;5044310;28;20382;-65
2022/05/31 11:49:31;;;;;;;6.30;2.88;;;24.60;82.40;;;;;;5045295;28;20064;-66
2022/05/31 11:52:35;;;;;;;5.07;2.85;;;25.20;82.00;;;;;;5059626;28;20261;-65
2022/05/31 11:55:26;;;;;;;6.68;3.80;;;25.70;77.80;;;;;;5044790;28;20049;-66
2022/05/31 11:58:14;;;;;;;6.22;3.38;;;25.30;75.20;;;;;;5047984;28;20056;-65
2022/05/31 12:00:54;;;;;;;6.20;3.20;;;24.50;73.60;;;;;;5067215;28;20417;-65
2022/05/31 12:03:32;;;;;;;8.80;2.90;;;23.90;73.40;;;;;;5069680;28;20093;-66
2022/05/31 12:06:25;;;;;;;5.57;2.60;;;23.50;75.50;;;;;;5084622;28;20109;-66
2022/05/31 12:09:15;;;;;;;5.75;2.67;;;23.40;75.90;;;;;;5082562;28;20055;-66
2022/05/31 12:11:48;;;;;;;7.93;2.83;;;23.10;75.90;;;;;;5082928;28;20048;-66
2022/05/31 12:14:14;;;;;;;5.72;2.80;;;22.90;74.50;;;;;;5065632;28;20048;-66
2022/05/31 12:16:42;;;;;;;8.40;2.80;;;22.70;74.60;;;;;;5063967;28;20075;-66
2022/05/31 12:19:27;;;;;;;6.78;3.10;;;22.50;74.50;;;;;;5063308;28;20405;-66
2022/05/31 12:21:55;;;;;;;7.53;2.80;;;22.10;75.90;;;;;;5066347;28;20052;-67
2022/05/31 12:24:28;;;;;;;4.88;2.70;;;21.80;77.20;;;;;;5066627;28;20640;-67
2022/05/31 12:27:13;;;;;;;7.20;2.85;;;21.60;78.50;;;;;;5067071;28;20044;-67
2022/05/31 12:30:04;;;;;;;3.97;2.63;;;21.30;79.80;;;;;;5064679;28;20439;-68
2022/05/31 12:32:35;;;;;;;4.82;2.65;;;21.00;81.80;;;;;;5064912;28;20045;-68
2022/05/31 12:35:04;;;;;;;6.00;3.00;;;20.80;83.40;;;;;;5062513;28;20041;-67
2022/05/31 12:37:50;;;;;;;8.35;3.40;;;20.50;84.00;;;;;;5046428;28;20049;-67
2022/05/31 12:40:32;;;;;;;6.50;3.88;;;20.10;83.20;;;;;;5063827;28;20062;-68
2022/05/31 12:43:00;;;;;;;7.82;3.60;;;19.70;85.30;;;;;;5068978;28;20044;-68
2022/05/31 12:45:32;;;;;;;6.80;3.40;;;19.30;87.40;;;;;;5068572;28;20476;-66
2022/05/31 12:48:01;;;;;;;6.57;3.17;;;19.10;88.70;;;;;;5065709;28;20131;-66
2022/05/31 12:50:54;;;;;;;9.35;3.30;;;18.80;89.50;;;;;;5068788;28;20181;-69
2022/05/31 12:53:40;;;;;;;6.97;3.58;;;18.70;90.10;;;;;;5066936;28;20040;-67
2022/05/31 12:56:09;;;;;;;7.22;3.30;;;18.60;90.70;;;;;;5064997;28;20417;-66
2022/05/31 12:58:44;;;;;;;8.82;3.50;;;18.40;91.10;;;;;;5064971;28;20036;-67
2022/05/31 13:01:13;;;;;;;6.07;3.10;;;18.40;91.70;;;;;;5063828;28;20091;-67
2022/05/31 13:03:53;;;;;;;6.63;3.00;;;18.40;92.20;;;;;;5066412;28;20044;-70
2022/05/31 13:06:55;;;;;;;6.43;3.10;;;18.40;92.30;;;;;;5066389;28;20476;-70
2022/05/31 13:09:23;;;;;;;6.38;3.05;;;18.40;91.90;;;;;;5066510;28;20045;-70
2022/05/31 13:20:49;;;;;;;6.22;3.17;;;18.20;91.30;;;;;;5066495;28;20045;-68
2022/05/31 13:23:16;;;;;;;6.90;3.00;;;18.20;91.60;;;;;;5064659;28;20048;-71
2022/05/31 13:26:03;;;;;;;6.30;2.90;;;18.10;91.50;;;;;;5069658;28;20094;-70
2022/05/31 13:28:35;;;;;;;5.93;3.20;;;18.20;91.10;;;;;;5069102;28;20091;-70
2022/05/31 13:31:04;;;;;;;8.20;2.92;;;18.10;91.40;;;;;;5066832;28;20421;-70
2022/05/31 13:33:31;;;;;;;7.57;2.72;;;17.90;91.90;;;;;;5066590;28;20123;-70
2022/05/31 13:36:14;;;;;;;6.50;3.15;;;18.30;92.20;;;;;;5080569;28;20087;-69
2022/05/31 13:38:43;;;;;;;8.77;2.88;;;17.90;91.70;;;;;;5063347;28;20048;-69
2022/05/31 13:41:14;;;;;;;5.82;2.90;;;17.90;91.90;;;;;;5063865;28;20040;-69